createdAt,value
2022-10-16T00:01:45.030Z,19.43
2022-10-16T00:04:13.448Z,19.40
2022-10-16T00:06:41.300Z,19.41
2022-10-16T00:09:10.228Z,19.42
2022-10-16T00:11:41.044Z,19.44
2022-10-16T00:14:14.080Z,19.46
2022-10-16T00:16:42.677Z,19.48
2022-10-16T00:19:12.907Z,19.46
2022-10-16T00:21:40.796Z,19.42
2022-10-16T00:24:10.668Z,19.43
2022-10-16T00:26:40.566Z,19.47
2022-10-16T00:29:09.185Z,19.46
2022-10-16T00:31:37.675Z,19.48
2022-10-16T00:34:05.919Z,19.52
2022-10-16T00:36:33.766Z,19.54
2022-10-16T00:39:02.849Z,19.57
2022-10-16T00:41:31.573Z,19.57
2022-10-16T00:44:03.591Z,19.59
2022-10-16T00:46:41.505Z,19.61
2022-10-16T00:49:17.749Z,19.59
2022-10-16T00:51:54.946Z,19.59
2022-10-16T00:54:30.148Z,19.58
2022-10-16T00:57:05.040Z,19.59
2022-10-16T00:59:40.071Z,19.58
2022-10-16T01:02:14.432Z,19.58
2022-10-16T01:04:51.084Z,19.57
2022-10-16T01:07:38.310Z,19.59
2022-10-16T01:10:30.243Z,19.62
2022-10-16T01:13:10.653Z,19.61
2022-10-16T01:15:56.723Z,19.58
2022-10-16T01:18:43.848Z,19.60
2022-10-16T01:21:22.645Z,19.60
2022-10-16T01:24:34.042Z,19.58
2022-10-16T01:27:31.276Z,19.57
2022-10-16T01:30:24.365Z,19.54
2022-10-16T01:33:02.200Z,19.52
2022-10-16T01:35:46.862Z,19.53
2022-10-16T01:38:36.533Z,19.50
2022-10-16T01:41:33.948Z,19.46
2022-10-16T01:44:23.880Z,19.47
2022-10-16T01:46:55.134Z,19.47
2022-10-16T01:49:27.553Z,19.45
2022-10-16T01:54:32.654Z,19.48
2022-10-16T01:57:02.664Z,19.51
2022-10-16T01:59:34.201Z,19.56
2022-10-16T02:02:08.894Z,19.57
2022-10-16T02:04:46.443Z,19.60
2022-10-16T02:07:15.181Z,19.60
2022-10-16T02:09:43.220Z,19.63
2022-10-16T02:12:27.752Z,19.61
2022-10-16T02:14:56.454Z,19.62
2022-10-16T02:17:24.922Z,19.60
2022-10-16T02:19:55.909Z,19.61
2022-10-16T02:22:39.352Z,19.60
2022-10-16T02:25:35.803Z,19.62
2022-10-16T02:28:09.738Z,19.60
2022-10-16T02:30:43.832Z,19.53
2022-10-16T02:33:17.129Z,19.53
2022-10-16T02:35:48.803Z,19.55
2022-10-16T02:38:19.041Z,19.54
2022-10-16T02:40:47.121Z,19.53
2022-10-16T02:43:16.201Z,19.50
2022-10-16T02:45:44.307Z,19.46
2022-10-16T02:48:12.206Z,19.43
2022-10-16T02:50:40.005Z,19.37
2022-10-16T02:53:08.376Z,19.41
2022-10-16T02:55:36.170Z,19.44
2022-10-16T02:58:04.013Z,19.44
2022-10-16T03:00:31.803Z,19.44
2022-10-16T03:02:59.562Z,19.42
2022-10-16T03:05:27.382Z,19.43
2022-10-16T03:07:55.192Z,19.42
2022-10-16T03:10:23.032Z,19.43
2022-10-16T03:12:50.809Z,19.44
2022-10-16T03:15:18.636Z,19.41
2022-10-16T03:17:46.501Z,19.39
2022-10-16T03:20:14.414Z,19.36
2022-10-16T03:22:42.174Z,19.38
2022-10-16T03:25:10.124Z,19.40
2022-10-16T03:27:38.018Z,19.40
2022-10-16T03:30:06.566Z,19.32
2022-10-16T03:35:03.942Z,19.29
2022-10-16T03:37:31.761Z,19.33
2022-10-16T03:40:00.339Z,19.35
2022-10-16T03:42:28.105Z,19.34
2022-10-16T03:44:55.951Z,19.38
2022-10-16T03:47:25.012Z,19.38
2022-10-16T03:49:53.105Z,19.43
2022-10-16T03:52:20.895Z,19.39
2022-10-16T03:54:48.687Z,19.42
2022-10-16T03:57:16.581Z,19.45
2022-10-16T03:59:44.548Z,19.43
2022-10-16T04:02:12.311Z,19.45
2022-10-16T04:04:40.316Z,19.44
2022-10-16T04:07:08.097Z,19.43
2022-10-16T04:09:35.944Z,19.42
2022-10-16T04:12:04.025Z,19.43
2022-10-16T04:14:31.883Z,19.43
2022-10-16T04:16:59.671Z,19.46
2022-10-16T04:19:28.252Z,19.48
2022-10-16T04:21:56.012Z,19.44
2022-10-16T04:24:23.846Z,19.38
2022-10-16T04:26:51.662Z,19.35
2022-10-16T04:29:19.707Z,19.34
2022-10-16T04:31:48.238Z,19.34
2022-10-16T04:34:16.160Z,19.37
2022-10-16T04:36:43.921Z,19.39
2022-10-16T04:39:11.717Z,19.39
2022-10-16T04:41:39.657Z,19.39
2022-10-16T04:44:07.758Z,19.37
2022-10-16T04:46:35.605Z,19.35
2022-10-16T04:49:03.435Z,19.36
2022-10-16T04:51:31.402Z,19.38
2022-10-16T04:53:59.388Z,19.43
2022-10-16T04:56:27.164Z,19.41
2022-10-16T04:58:55.113Z,19.41
2022-10-16T05:01:22.956Z,19.40
2022-10-16T05:03:50.782Z,19.39
2022-10-16T05:06:18.598Z,19.40
2022-10-16T05:08:46.386Z,19.42
2022-10-16T05:11:14.131Z,19.44
2022-10-16T05:13:41.930Z,19.44
2022-10-16T05:16:09.824Z,19.43
2022-10-16T05:18:37.646Z,19.46
2022-10-16T05:21:06.859Z,19.45
2022-10-16T05:23:35.609Z,19.45
2022-10-16T05:26:03.465Z,19.44
2022-10-16T05:28:32.326Z,19.46
2022-10-16T05:31:00.711Z,19.45
2022-10-16T05:33:28.655Z,19.42
2022-10-16T05:35:56.414Z,19.39
2022-10-16T05:38:24.243Z,19.38
2022-10-16T05:40:57.233Z,19.38
2022-10-16T05:43:25.168Z,19.38
2022-10-16T05:46:03.396Z,19.36
2022-10-16T05:48:31.963Z,19.35
2022-10-16T05:51:02.396Z,19.34
2022-10-16T05:53:33.449Z,19.33
2022-10-16T05:56:01.997Z,19.34
2022-10-16T05:58:35.177Z,19.32
2022-10-16T06:01:15.839Z,19.31
2022-10-16T06:03:44.403Z,19.27
2022-10-16T06:06:17.496Z,19.27
2022-10-16T06:08:49.384Z,19.30
2022-10-16T06:11:25.019Z,19.31
2022-10-16T06:13:57.718Z,19.32
2022-10-16T06:16:27.051Z,19.35
2022-10-16T06:19:00.935Z,19.34
2022-10-16T06:21:30.144Z,19.35
2022-10-16T06:23:59.301Z,19.32
2022-10-16T06:26:30.416Z,19.33
2022-10-16T06:29:00.408Z,19.32
2022-10-16T06:31:31.814Z,19.33
2022-10-16T06:34:00.189Z,19.37
2022-10-16T06:36:28.857Z,19.36
2022-10-16T06:38:57.587Z,19.39
2022-10-16T06:41:25.487Z,19.39
2022-10-16T06:43:53.399Z,19.39
2022-10-16T06:46:24.661Z,19.41
2022-10-16T06:48:54.879Z,19.44
2022-10-16T06:51:25.231Z,19.46
2022-10-16T06:54:04.953Z,19.42
2022-10-16T06:56:34.859Z,19.45
2022-10-16T06:59:03.559Z,19.44
2022-10-16T07:01:32.020Z,19.46
2022-10-16T07:04:00.905Z,19.51
2022-10-16T07:06:33.289Z,19.55
2022-10-16T07:09:06.060Z,19.58
2022-10-16T07:11:34.603Z,19.62
2022-10-16T07:14:02.577Z,19.65
2022-10-16T07:16:33.312Z,19.68
2022-10-16T07:19:03.758Z,19.72
2022-10-16T07:21:38.197Z,19.75
2022-10-16T07:24:12.459Z,19.74
2022-10-16T07:26:41.249Z,19.77
2022-10-16T07:29:18.646Z,19.77
2022-10-16T07:31:46.985Z,19.77
2022-10-16T07:34:17.725Z,19.78
2022-10-16T07:36:48.348Z,19.76
2022-10-16T07:39:16.200Z,19.79
2022-10-16T07:41:44.052Z,19.84
2022-10-16T07:44:11.983Z,19.88
2022-10-16T07:46:39.857Z,19.95
2022-10-16T07:49:07.701Z,19.98
2022-10-16T07:51:35.614Z,20.02
2022-10-16T07:54:03.512Z,20.10
2022-10-16T07:56:33.776Z,20.17
2022-10-16T07:59:01.765Z,20.24
2022-10-16T08:01:29.605Z,20.33
2022-10-16T08:03:57.460Z,20.41
2022-10-16T08:06:27.822Z,20.47
2022-10-16T08:08:57.393Z,20.50
2022-10-16T08:11:25.253Z,20.53
2022-10-16T08:13:53.205Z,20.59
2022-10-16T08:16:21.516Z,20.63
2022-10-16T08:18:52.630Z,20.69
2022-10-16T08:21:24.486Z,20.73
2022-10-16T08:23:58.027Z,20.77
2022-10-16T08:26:28.579Z,20.82
2022-10-16T08:29:02.316Z,20.80
2022-10-16T08:31:32.371Z,20.81
2022-10-16T08:34:00.360Z,20.83
2022-10-16T08:36:28.783Z,20.83
2022-10-16T08:38:57.505Z,20.88
2022-10-16T08:42:02.528Z,20.91
2022-10-16T08:44:58.492Z,20.96
2022-10-16T08:47:57.398Z,21.02
2022-10-16T08:50:30.634Z,21.09
2022-10-16T08:53:01.289Z,21.11
2022-10-16T08:55:51.833Z,21.18
2022-10-16T08:58:28.484Z,21.21
2022-10-16T09:01:00.332Z,21.22
2022-10-16T09:03:46.693Z,21.25
2022-10-16T09:06:23.058Z,21.31
2022-10-16T09:09:15.272Z,21.35
2022-10-16T09:12:04.306Z,21.37
2022-10-16T09:15:13.179Z,21.34
2022-10-16T09:18:14.970Z,21.33
2022-10-16T09:20:52.443Z,21.28
2022-10-16T09:23:29.196Z,21.24
2022-10-16T09:25:59.506Z,21.22
2022-10-16T09:28:27.910Z,21.21
2022-10-16T09:30:55.811Z,21.27
2022-10-16T09:33:37.543Z,21.31
2022-10-16T09:36:07.807Z,21.37
2022-10-16T09:38:37.571Z,21.42
2022-10-16T09:41:23.364Z,21.48
2022-10-16T09:44:05.437Z,21.54
2022-10-16T09:46:36.219Z,21.58
2022-10-16T09:49:36.367Z,21.61
2022-10-16T09:52:16.515Z,21.68
2022-10-16T09:54:59.933Z,21.68
2022-10-16T09:57:28.418Z,21.72
2022-10-16T09:59:59.655Z,21.71
2022-10-16T10:02:41.623Z,21.68
2022-10-16T10:05:26.179Z,21.75
2022-10-16T10:08:07.141Z,21.80
2022-10-16T10:10:43.574Z,21.90
2022-10-16T10:13:25.985Z,21.96
2022-10-16T10:15:54.930Z,21.99
2022-10-16T10:18:25.061Z,21.99
2022-10-16T10:23:33.181Z,22.05
2022-10-16T10:26:37.726Z,22.13
2022-10-16T10:29:39.146Z,22.24
2022-10-16T10:32:26.886Z,22.36
2022-10-16T10:35:17.075Z,22.46
2022-10-16T10:38:18.633Z,22.56
2022-10-16T10:41:17.500Z,22.67
2022-10-16T10:44:35.738Z,22.79
2022-10-16T10:47:51.264Z,22.90
2022-10-16T10:50:58.888Z,22.94
2022-10-16T10:53:56.985Z,22.90
2022-10-16T10:56:48.578Z,22.85
2022-10-16T10:59:59.748Z,22.81
2022-10-16T11:03:05.417Z,22.77
2022-10-16T11:05:57.570Z,22.78
2022-10-16T11:08:43.399Z,22.78
2022-10-16T11:11:35.901Z,22.80
2022-10-16T11:14:32.957Z,22.83
2022-10-16T11:17:51.550Z,22.89
2022-10-16T11:20:32.760Z,22.99
2022-10-16T11:23:24.894Z,23.08
2022-10-16T11:25:55.144Z,23.16
2022-10-16T11:28:38.564Z,23.28
2022-10-16T11:31:17.265Z,23.43
2022-10-16T11:34:25.734Z,23.56
2022-10-16T11:37:32.807Z,23.66
2022-10-16T11:40:20.625Z,23.78
2022-10-16T11:43:18.302Z,23.84
2022-10-16T11:45:58.366Z,23.93
2022-10-16T11:48:37.464Z,23.89
2022-10-16T11:51:22.177Z,23.97
2022-10-16T11:54:25.822Z,24.10
2022-10-16T11:57:00.736Z,24.15
2022-10-16T11:59:46.743Z,24.20
2022-10-16T12:03:04.657Z,24.22
2022-10-16T12:05:53.365Z,24.15
2022-10-16T12:08:21.584Z,24.16
2022-10-16T12:10:53.732Z,24.17
2022-10-16T12:13:41.406Z,24.24
2022-10-16T12:16:29.753Z,24.26
2022-10-16T12:19:31.710Z,24.30
2022-10-16T12:22:03.083Z,24.32
2022-10-16T12:24:44.135Z,24.34
2022-10-16T12:27:33.151Z,24.30
2022-10-16T12:30:06.931Z,24.26
2022-10-16T12:32:47.310Z,24.32
2022-10-16T12:35:32.741Z,24.33
2022-10-16T12:38:19.776Z,24.33
2022-10-16T12:41:10.016Z,24.29
2022-10-16T12:43:45.355Z,24.29
2022-10-16T12:46:15.849Z,24.29
2022-10-16T12:49:05.938Z,24.31
2022-10-16T12:51:37.463Z,24.44
2022-10-16T12:54:11.709Z,24.60
2022-10-16T12:57:10.081Z,24.75
2022-10-16T12:59:52.647Z,24.82
2022-10-16T13:02:26.292Z,24.84
2022-10-16T13:05:12.010Z,24.81
2022-10-16T13:08:14.312Z,24.88
2022-10-16T13:11:12.338Z,25.03
2022-10-16T13:14:03.647Z,25.14
2022-10-16T13:17:14.933Z,25.21
2022-10-16T13:20:08.156Z,25.21
2022-10-16T13:23:10.894Z,25.22
2022-10-16T13:26:09.897Z,25.22
2022-10-16T13:28:40.543Z,25.28
2022-10-16T13:31:25.553Z,25.35
2022-10-16T13:34:00.280Z,25.35
2022-10-16T13:36:31.984Z,25.32
2022-10-16T13:39:18.250Z,25.32
2022-10-16T13:41:46.511Z,25.30
2022-10-16T13:44:21.669Z,25.40
2022-10-16T13:47:02.989Z,25.49
2022-10-16T13:49:30.812Z,25.49
2022-10-16T13:52:00.911Z,25.48
2022-10-16T13:54:32.387Z,25.46
2022-10-16T13:57:15.643Z,25.52
2022-10-16T13:59:54.538Z,25.71
2022-10-16T14:02:37.817Z,25.57
2022-10-16T14:05:10.880Z,25.43
2022-10-16T14:07:39.336Z,25.37
2022-10-16T14:10:25.433Z,25.40
2022-10-16T14:13:30.844Z,25.41
2022-10-16T14:16:09.164Z,25.44
2022-10-16T14:18:40.524Z,25.43
2022-10-16T14:21:17.005Z,25.41
2022-10-16T14:23:45.199Z,25.32
2022-10-16T14:26:14.703Z,25.25
2022-10-16T14:28:48.457Z,25.18
2022-10-16T14:31:29.836Z,25.16
2022-10-16T14:33:58.478Z,25.13
2022-10-16T14:36:29.150Z,25.11
2022-10-16T14:39:07.646Z,25.14
2022-10-16T14:41:47.175Z,25.19
2022-10-16T14:44:18.008Z,25.20
2022-10-16T14:46:46.909Z,25.20
2022-10-16T14:49:21.004Z,25.20
2022-10-16T14:51:49.318Z,25.20
2022-10-16T14:54:19.503Z,25.22
2022-10-16T14:56:54.346Z,25.27
2022-10-16T14:59:39.698Z,25.32
2022-10-16T15:02:30.964Z,25.38
2022-10-16T15:05:03.212Z,25.40
2022-10-16T15:07:31.218Z,25.42
2022-10-16T15:09:59.519Z,25.33
2022-10-16T15:12:27.286Z,25.28
2022-10-16T15:14:55.125Z,25.23
2022-10-16T15:17:22.924Z,25.15
2022-10-16T15:19:52.293Z,25.09
2022-10-16T15:22:20.059Z,25.04
2022-10-16T15:24:47.872Z,24.95
2022-10-16T15:27:15.785Z,24.91
2022-10-16T15:29:43.591Z,24.87
2022-10-16T15:32:12.411Z,24.86
2022-10-16T15:34:40.193Z,24.87
2022-10-16T15:37:09.925Z,24.88
2022-10-16T15:39:46.087Z,24.92
2022-10-16T15:42:14.974Z,24.91
2022-10-16T15:44:43.391Z,24.89
2022-10-16T15:47:11.334Z,24.84
2022-10-16T15:49:39.119Z,24.78
2022-10-16T15:52:07.114Z,24.75
2022-10-16T15:54:35.329Z,24.69
2022-10-16T15:57:03.213Z,24.61
2022-10-16T15:59:31.426Z,24.52
2022-10-16T16:01:59.422Z,24.41
2022-10-16T16:04:44.619Z,24.33
2022-10-16T16:07:13.166Z,24.26
2022-10-16T16:09:41.514Z,24.16
2022-10-16T16:12:12.267Z,24.06
2022-10-16T16:14:40.597Z,23.99
2022-10-16T16:17:09.050Z,23.92
2022-10-16T16:19:37.438Z,23.86
2022-10-16T16:22:09.421Z,23.82
2022-10-16T16:24:40.921Z,23.77
2022-10-16T16:27:11.385Z,23.71
2022-10-16T16:29:39.377Z,23.67
2022-10-16T16:32:10.636Z,23.61
2022-10-16T16:34:40.183Z,23.57
2022-10-16T16:37:09.464Z,23.55
2022-10-16T16:39:37.260Z,23.55
2022-10-16T16:42:07.239Z,23.52
2022-10-16T16:44:37.257Z,23.50
2022-10-16T16:47:06.425Z,23.46
2022-10-16T16:49:34.426Z,23.39
2022-10-16T16:52:02.293Z,23.32
2022-10-16T16:54:30.196Z,23.23
2022-10-16T16:56:58.127Z,23.19
2022-10-16T16:59:25.947Z,23.13
2022-10-16T17:01:56.996Z,23.10
2022-10-16T17:04:25.413Z,23.08
2022-10-16T17:06:55.987Z,23.04
2022-10-16T17:09:24.489Z,22.99
2022-10-16T17:11:52.311Z,22.94
2022-10-16T17:14:20.476Z,22.90
2022-10-16T17:16:49.894Z,22.90
2022-10-16T17:19:20.427Z,22.89
2022-10-16T17:21:52.338Z,22.85
2022-10-16T17:24:21.478Z,22.81
2022-10-16T17:26:49.667Z,22.80
2022-10-16T17:29:18.812Z,22.74
2022-10-16T17:31:49.852Z,22.72
2022-10-16T17:34:18.496Z,22.68
2022-10-16T17:36:47.332Z,22.63
2022-10-16T17:39:18.026Z,22.61
2022-10-16T17:41:48.350Z,22.58
2022-10-16T17:44:20.471Z,22.59
2022-10-16T17:46:53.791Z,22.56
2022-10-16T17:49:22.781Z,22.51
2022-10-16T17:51:52.829Z,22.47
2022-10-16T17:54:21.443Z,22.44
2022-10-16T17:56:49.592Z,22.42
2022-10-16T17:59:17.469Z,22.39
2022-10-16T18:01:46.377Z,22.36
2022-10-16T18:04:17.136Z,22.32
2022-10-16T18:06:45.859Z,22.29
2022-10-16T18:09:18.273Z,22.30
2022-10-16T18:11:47.316Z,22.29
2022-10-16T18:14:17.815Z,22.25
2022-10-16T18:16:45.781Z,22.22
2022-10-16T18:19:13.759Z,22.23
2022-10-16T18:21:41.618Z,22.21
2022-10-16T18:24:10.432Z,22.19
2022-10-16T18:26:38.970Z,22.16
2022-10-16T18:29:07.811Z,22.15
2022-10-16T18:31:37.894Z,22.11
2022-10-16T18:34:08.384Z,22.10
2022-10-16T18:36:36.531Z,22.03
2022-10-16T18:39:09.542Z,21.96
2022-10-16T18:41:44.843Z,21.97
2022-10-16T18:44:13.863Z,21.95
2022-10-16T18:46:42.190Z,21.91
2022-10-16T18:49:10.553Z,21.90
2022-10-16T18:51:41.424Z,21.88
2022-10-16T18:54:12.709Z,21.88
2022-10-16T18:56:40.878Z,21.85
2022-10-16T18:59:10.132Z,21.83
2022-10-16T19:01:39.165Z,21.84
2022-10-16T19:04:18.930Z,21.83
2022-10-16T19:06:49.897Z,21.84
2022-10-16T19:09:19.900Z,21.81
2022-10-16T19:11:48.975Z,21.79
2022-10-16T19:14:18.282Z,21.78
2022-10-16T19:16:46.152Z,21.73
2022-10-16T19:19:18.532Z,21.66
2022-10-16T19:21:48.368Z,21.61
2022-10-16T19:24:17.141Z,21.58
2022-10-16T19:26:45.014Z,21.56
2022-10-16T19:29:13.253Z,21.54
2022-10-16T19:31:41.448Z,21.48
2022-10-16T19:34:11.474Z,21.44
2022-10-16T19:36:41.419Z,21.45
2022-10-16T19:39:14.633Z,21.45
2022-10-16T19:41:42.875Z,21.43
2022-10-16T19:44:14.733Z,21.39
2022-10-16T19:46:43.863Z,21.39
2022-10-16T19:49:16.946Z,21.36
2022-10-16T19:54:20.542Z,21.30
2022-10-16T19:56:48.541Z,21.26
2022-10-16T19:59:19.401Z,21.26
2022-10-16T20:01:47.937Z,21.22
2022-10-16T20:04:16.947Z,21.22
2022-10-16T20:06:45.161Z,21.21
2022-10-16T20:09:13.766Z,21.20
2022-10-16T20:11:42.067Z,21.18
2022-10-16T20:14:10.309Z,21.18
2022-10-16T20:16:39.373Z,21.16
2022-10-16T20:19:07.574Z,21.15
2022-10-16T20:21:35.487Z,21.12
2022-10-16T20:24:06.366Z,21.12
2022-10-16T20:26:35.177Z,21.10
2022-10-16T20:29:05.556Z,21.08
2022-10-16T20:31:34.379Z,21.03
2022-10-16T20:34:08.315Z,21.01
2022-10-16T20:36:38.797Z,20.98
2022-10-16T20:39:07.899Z,20.96
2022-10-16T20:41:36.967Z,20.92
2022-10-16T20:44:05.379Z,20.92
2022-10-16T20:46:33.628Z,20.92
2022-10-16T20:49:10.723Z,20.88
2022-10-16T20:51:45.510Z,20.84
2022-10-16T20:54:13.352Z,20.84
2022-10-16T20:56:43.977Z,20.79
2022-10-16T20:59:15.547Z,20.75
2022-10-16T21:01:43.459Z,20.72
2022-10-16T21:04:11.423Z,20.73
2022-10-16T21:06:40.402Z,20.73
2022-10-16T21:09:09.342Z,20.75
2022-10-16T21:11:38.177Z,20.76
2022-10-16T21:14:08.340Z,20.75
2022-10-16T21:16:36.438Z,20.74
2022-10-16T21:19:04.872Z,20.76
2022-10-16T21:21:38.153Z,20.78
2022-10-16T21:24:11.923Z,20.78
2022-10-16T21:26:42.997Z,20.78
2022-10-16T21:29:11.843Z,20.74
2022-10-16T21:31:41.104Z,20.71
2022-10-16T21:34:09.217Z,20.69
2022-10-16T21:36:40.900Z,20.64
2022-10-16T21:39:17.777Z,20.62
2022-10-16T21:41:49.402Z,20.61
2022-10-16T21:44:20.179Z,20.57
2022-10-16T21:46:50.205Z,20.56
2022-10-16T21:49:19.688Z,20.54
2022-10-16T21:51:50.594Z,20.47
2022-10-16T21:54:23.805Z,20.46
2022-10-16T21:56:52.950Z,20.48
2022-10-16T21:59:21.336Z,20.49
2022-10-16T22:01:49.284Z,20.46
2022-10-16T22:04:17.345Z,20.44
2022-10-16T22:06:45.558Z,20.42
2022-10-16T22:09:16.662Z,20.39
2022-10-16T22:11:45.328Z,20.35
2022-10-16T22:14:19.780Z,20.32
2022-10-16T22:16:49.400Z,20.27
2022-10-16T22:19:21.220Z,20.24
2022-10-16T22:21:53.008Z,20.20
2022-10-16T22:24:20.858Z,20.15
2022-10-16T22:26:49.224Z,20.06
2022-10-16T22:29:18.207Z,19.99
2022-10-16T22:31:46.184Z,19.95
2022-10-16T22:34:14.634Z,19.89
2022-10-16T22:36:43.085Z,19.88
2022-10-16T22:39:11.322Z,19.85
2022-10-16T22:41:39.102Z,19.83
2022-10-16T22:44:10.766Z,19.87
2022-10-16T22:46:38.678Z,19.88
2022-10-16T22:49:06.515Z,19.90
2022-10-16T22:51:34.355Z,19.90
2022-10-16T22:54:02.395Z,19.94
2022-10-16T22:56:30.156Z,19.94
2022-10-16T22:58:57.939Z,19.96
2022-10-16T23:01:33.638Z,19.99
2022-10-16T23:04:01.641Z,19.99
2022-10-16T23:06:30.153Z,19.99
2022-10-16T23:09:00.776Z,19.98
2022-10-16T23:11:30.212Z,19.98
2022-10-16T23:13:58.671Z,19.99
2022-10-16T23:16:26.600Z,20.00
2022-10-16T23:18:54.736Z,19.98
2022-10-16T23:21:25.400Z,19.96
2022-10-16T23:23:54.844Z,19.97
2022-10-16T23:26:26.716Z,19.94
2022-10-16T23:28:57.933Z,19.92
2022-10-16T23:31:26.539Z,19.86
2022-10-16T23:33:56.680Z,19.81
2022-10-16T23:36:25.323Z,19.76
2022-10-16T23:38:54.019Z,19.66
2022-10-16T23:41:22.123Z,19.60
2022-10-16T23:43:51.448Z,19.60
2022-10-16T23:46:19.461Z,19.61
2022-10-16T23:48:47.297Z,19.64
2022-10-16T23:51:15.234Z,19.62
2022-10-16T23:53:43.223Z,19.59
2022-10-16T23:56:11.084Z,19.62
2022-10-16T23:58:39.045Z,19.61
